Time;durP1;ratioP1;P1;durP2;ratioP2;P2;SDS_P1;SDS_P2;PMS_P1;PMS_P2;Temp;Humidity;BMP_temperature;BMP_pressure;BME280_temperature;BME280_humidity;BME280_pressure;Samples;Min_cycle;Max_cycle;Signal;HPM_P1;HPM_P2
2022/08/29 00:01:28;;;;;;;1.88;1.40;;;23.40;99.90;;;;;;4224452;28;20210;-81
2022/08/29 00:03:31;;;;;;;2.15;1.45;;;23.40;99.90;;;;;;4216251;28;20210;-82
2022/08/29 00:05:36;;;;;;;2.25;1.63;;;23.40;99.90;;;;;;4214617;28;20248;-82
2022/08/29 00:07:38;;;;;;;3.03;1.70;;;23.40;99.90;;;;;;4209903;28;20275;-82
2022/08/29 00:09:40;;;;;;;3.45;1.85;;;23.40;99.90;;;;;;4214430;28;20241;-82
2022/08/29 00:11:43;;;;;;;2.13;1.55;;;23.40;99.90;;;;;;4214970;28;20267;-81
2022/08/29 00:13:47;;;;;;;2.92;1.60;;;23.40;99.90;;;;;;4215522;28;20715;-82
2022/08/29 00:15:49;;;;;;;2.28;1.65;;;23.40;99.90;;;;;;4214559;28;20264;-82
2022/08/29 00:17:52;;;;;;;2.10;1.80;;;23.40;99.90;;;;;;4214635;28;20206;-82
2022/08/29 00:19:54;;;;;;;1.73;1.58;;;23.40;99.90;;;;;;4214807;28;20219;-82
2022/08/29 00:21:57;;;;;;;1.83;1.60;;;23.40;99.90;;;;;;4213595;28;20218;-82
2022/08/29 00:23:59;;;;;;;2.25;1.83;;;23.30;99.90;;;;;;4214599;28;20211;-81
2022/08/29 00:26:02;;;;;;;2.80;1.92;;;23.30;99.90;;;;;;4214572;28;20211;-82
2022/08/29 00:28:04;;;;;;;2.00;1.70;;;23.40;99.90;;;;;;4214551;28;20283;-82
2022/08/29 00:30:10;;;;;;;2.30;1.55;;;23.30;99.90;;;;;;4214127;28;20211;-82
2022/08/29 00:32:12;;;;;;;2.65;1.50;;;23.30;99.90;;;;;;4214388;28;20215;-82
2022/08/29 00:34:15;;;;;;;2.65;1.70;;;23.40;99.90;;;;;;4214247;28;20260;-82
2022/08/29 00:36:17;;;;;;;2.05;1.63;;;23.30;99.90;;;;;;4214048;28;20287;-82
2022/08/29 00:38:20;;;;;;;2.20;1.50;;;23.30;99.90;;;;;;4213569;28;20206;-82
2022/08/29 00:40:30;;;;;;;2.45;1.75;;;23.30;99.90;;;;;;4213740;28;20269;-82
2022/08/29 00:42:34;;;;;;;2.63;1.92;;;23.30;99.90;;;;;;4213640;28;20210;-82
2022/08/29 00:44:36;;;;;;;3.33;2.03;;;23.30;99.90;;;;;;4214100;28;20260;-82
2022/08/29 00:46:51;;;;;;;2.63;1.70;;;23.30;99.90;;;;;;4214294;28;20215;-82
2022/08/29 00:48:57;;;;;;;2.58;1.77;;;23.30;99.90;;;;;;4213819;28;20232;-82
2022/08/29 00:51:05;;;;;;;3.63;1.70;;;23.30;99.90;;;;;;4218455;28;20211;-82
2022/08/29 00:53:11;;;;;;;2.08;1.63;;;23.30;99.90;;;;;;4212784;28;20678;-82
2022/08/29 00:55:19;;;;;;;2.35;1.77;;;23.30;99.90;;;;;;4208897;28;20256;-82
2022/08/29 00:57:23;;;;;;;2.13;1.70;;;23.30;99.90;;;;;;4212605;28;20219;-82
2022/08/29 00:59:30;;;;;;;2.25;1.67;;;23.30;99.90;;;;;;4214019;28;20218;-82
2022/08/29 01:01:32;;;;;;;2.17;1.77;;;23.30;99.90;;;;;;4206947;28;20663;-82
2022/08/29 01:03:37;;;;;;;1.85;1.33;;;23.30;99.90;;;;;;4213134;28;20283;-82
2022/08/29 01:05:39;;;;;;;3.20;1.52;;;23.30;99.90;;;;;;4208412;28;20202;-82
2022/08/29 01:07:42;;;;;;;2.25;1.33;;;23.30;99.90;;;;;;4209110;28;20256;-82
2022/08/29 01:09:45;;;;;;;2.33;1.80;;;23.30;99.90;;;;;;4213820;28;20211;-82
2022/08/29 01:14:10;;;;;;;3.35;1.67;;;23.30;99.90;;;;;;4203912;28;20255;-82
2022/08/29 01:16:15;;;;;;;2.47;1.70;;;23.30;99.90;;;;;;4212683;28;20280;-82
2022/08/29 01:18:19;;;;;;;1.83;1.50;;;23.30;99.90;;;;;;4213879;28;20207;-82
2022/08/29 01:20:31;;;;;;;2.20;1.48;;;23.20;99.90;;;;;;4213808;28;20206;-82
2022/08/29 01:22:51;;;;;;;2.63;1.80;;;23.30;99.90;;;;;;4213930;28;20283;-82
2022/08/29 01:24:58;;;;;;;3.15;1.60;;;23.30;99.90;;;;;;4207534;28;20249;-82
2022/08/29 01:27:01;;;;;;;2.33;1.80;;;23.30;99.90;;;;;;4213706;28;20214;-82
2022/08/29 01:29:03;;;;;;;4.32;1.40;;;23.30;99.90;;;;;;4213746;28;20260;-82
2022/08/29 01:31:09;;;;;;;4.20;1.80;;;23.20;99.90;;;;;;4213088;28;20623;-82
2022/08/29 01:33:11;;;;;;;1.85;1.60;;;23.30;99.90;;;;;;4208299;28;20264;-82
2022/08/29 01:35:14;;;;;;;2.13;1.60;;;23.30;99.90;;;;;;4213831;28;20210;-82
2022/08/29 01:37:17;;;;;;;2.20;1.23;;;23.30;99.90;;;;;;4213710;28;20230;-82
2022/08/29 01:39:21;;;;;;;2.65;1.52;;;23.30;99.90;;;;;;4213558;28;20210;-82
2022/08/29 01:41:25;;;;;;;2.15;1.77;;;23.30;99.90;;;;;;4211678;28;20604;-82
2022/08/29 01:43:29;;;;;;;2.45;1.92;;;23.20;99.90;;;;;;4209254;28;20283;-82
2022/08/29 01:45:31;;;;;;;4.65;1.95;;;23.20;99.90;;;;;;4207035;28;20259;-82
2022/08/29 01:47:35;;;;;;;2.15;1.70;;;23.20;99.90;;;;;;4206814;28;20252;-82
2022/08/29 01:49:38;;;;;;;3.15;1.88;;;23.20;99.90;;;;;;4209239;28;20222;-82
2022/08/29 01:51:41;;;;;;;2.38;1.75;;;23.20;99.90;;;;;;4213170;28;20215;-82
2022/08/29 01:53:43;;;;;;;1.80;1.48;;;23.20;99.90;;;;;;4212759;28;20288;-82
2022/08/29 01:55:46;;;;;;;1.67;1.50;;;23.20;99.90;;;;;;4213135;28;20215;-82
2022/08/29 01:57:49;;;;;;;2.55;1.80;;;23.20;99.90;;;;;;4214088;28;20640;-82
2022/08/29 01:59:52;;;;;;;2.75;1.80;;;23.20;99.90;;;;;;4213438;28;20207;-82
2022/08/29 02:01:58;;;;;;;2.75;1.50;;;23.20;99.90;;;;;;4213318;28;20720;-82
2022/08/29 02:04:01;;;;;;;3.22;1.75;;;23.20;99.90;;;;;;4212219;28;20211;-82
2022/08/29 02:06:04;;;;;;;2.28;1.60;;;23.20;99.90;;;;;;4212339;28;20267;-82
2022/08/29 02:08:06;;;;;;;2.30;1.77;;;23.20;99.90;;;;;;4210270;28;20291;-82
2022/08/29 02:10:09;;;;;;;2.65;1.70;;;23.20;99.90;;;;;;4213250;28;20207;-82
2022/08/29 02:12:13;;;;;;;2.25;1.70;;;23.20;99.90;;;;;;4212979;28;20654;-82
2022/08/29 02:14:16;;;;;;;2.10;1.80;;;23.20;99.90;;;;;;4212832;28;20237;-82
2022/08/29 02:16:20;;;;;;;2.97;1.65;;;23.20;99.90;;;;;;4212673;28;20234;-82
2022/08/29 02:18:22;;;;;;;2.53;1.77;;;23.20;99.90;;;;;;4211793;28;20247;-82
2022/08/29 02:20:24;;;;;;;2.45;1.83;;;23.10;99.90;;;;;;4210518;28;20248;-82
2022/08/29 02:22:27;;;;;;;2.20;1.60;;;23.10;99.90;;;;;;4212834;28;20231;-82
2022/08/29 02:24:29;;;;;;;1.92;1.67;;;23.10;99.90;;;;;;4212333;28;20215;-82
2022/08/29 02:26:32;;;;;;;2.33;1.60;;;23.20;99.90;;;;;;4212585;28;20218;-82
2022/08/29 02:28:35;;;;;;;3.15;1.70;;;23.10;99.90;;;;;;4217905;28;20271;-82
2022/08/29 02:30:39;;;;;;;4.07;1.95;;;23.10;99.90;;;;;;4212571;28;20214;-82
2022/08/29 02:32:42;;;;;;;2.53;1.77;;;23.10;99.90;;;;;;4212843;28;20631;-82
2022/08/29 02:34:45;;;;;;;3.50;2.05;;;23.10;99.90;;;;;;4212200;28;20234;-82
2022/08/29 02:36:47;;;;;;;3.03;1.95;;;23.10;99.90;;;;;;4212598;28;20230;-82
2022/08/29 02:38:50;;;;;;;2.20;1.90;;;23.10;99.90;;;;;;4212206;28;20210;-82
2022/08/29 02:40:52;;;;;;;1.83;1.63;;;23.10;99.90;;;;;;4212574;28;20206;-82
2022/08/29 02:42:55;;;;;;;2.95;1.80;;;23.10;99.90;;;;;;4212826;28;20236;-82
2022/08/29 02:44:57;;;;;;;2.53;1.65;;;23.10;99.90;;;;;;4212856;28;20554;-82
2022/08/29 02:47:01;;;;;;;2.65;1.42;;;23.10;99.90;;;;;;4212849;28;20202;-82
2022/08/29 02:49:03;;;;;;;3.67;1.70;;;23.10;99.90;;;;;;4209157;28;20211;-82
2022/08/29 02:51:06;;;;;;;2.70;1.48;;;23.10;99.90;;;;;;4212970;28;20256;-82
2022/08/29 02:53:08;;;;;;;2.63;1.77;;;23.10;99.90;;;;;;4212653;28;20721;-82
2022/08/29 02:55:14;;;;;;;2.33;1.63;;;23.10;99.90;;;;;;4212145;28;20620;-82
2022/08/29 02:57:16;;;;;;;1.98;1.42;;;23.10;99.90;;;;;;4213149;28;20235;-82
2022/08/29 02:59:19;;;;;;;3.78;1.73;;;23.10;99.90;;;;;;4220325;28;20272;-82
2022/08/29 03:01:22;;;;;;;3.78;2.03;;;23.10;99.90;;;;;;4212569;28;20234;-82
2022/08/29 03:03:27;;;;;;;3.65;2.10;;;23.10;99.90;;;;;;4209061;28;20296;-82
2022/08/29 03:05:33;;;;;;;2.13;1.92;;;23.10;99.90;;;;;;4206925;28;20256;-82
2022/08/29 03:07:36;;;;;;;4.05;1.80;;;23.10;99.90;;;;;;4212550;28;20719;-82
2022/08/29 03:09:38;;;;;;;2.30;1.80;;;23.10;99.90;;;;;;4212640;28;20260;-82
2022/08/29 03:11:40;;;;;;;2.90;1.65;;;23.10;99.90;;;;;;4211896;28;20215;-82
2022/08/29 03:13:43;;;;;;;2.15;1.58;;;23.10;99.90;;;;;;4212062;28;20210;-82
2022/08/29 03:15:46;;;;;;;2.25;1.80;;;23.10;99.90;;;;;;4212875;28;20240;-82
2022/08/29 03:17:49;;;;;;;2.63;1.73;;;23.10;99.90;;;;;;4215446;28;20287;-82
2022/08/29 03:19:53;;;;;;;2.97;1.90;;;23.10;99.90;;;;;;4210761;28;20214;-82
2022/08/29 03:21:56;;;;;;;3.17;1.83;;;23.10;99.90;;;;;;4215707;28;20211;-82
2022/08/29 03:23:58;;;;;;;3.13;1.98;;;23.10;99.90;;;;;;4216015;28;20270;-82
2022/08/29 03:26:01;;;;;;;2.85;1.65;;;23.00;99.90;;;;;;4215909;28;20304;-82
2022/08/29 03:28:04;;;;;;;2.75;1.90;;;23.10;99.90;;;;;;4215670;28;20244;-82
2022/08/29 03:30:08;;;;;;;1.85;1.42;;;23.00;99.90;;;;;;4215172;28;20214;-82
2022/08/29 03:32:11;;;;;;;2.65;1.80;;;23.10;99.90;;;;;;4215579;28;20215;-82
2022/08/29 03:34:13;;;;;;;2.20;1.70;;;23.10;99.90;;;;;;4215646;28;20284;-82
2022/08/29 03:36:18;;;;;;;2.65;1.85;;;23.00;99.90;;;;;;4206378;28;20214;-82
2022/08/29 03:38:21;;;;;;;2.38;1.77;;;23.00;99.90;;;;;;4214832;28;20238;-82
2022/08/29 03:40:24;;;;;;;3.35;1.90;;;23.10;99.90;;;;;;4215552;28;20214;-82
2022/08/29 03:42:27;;;;;;;3.90;2.15;;;23.00;99.90;;;;;;4215815;28;20210;-82
2022/08/29 03:44:31;;;;;;;3.15;1.85;;;23.00;99.90;;;;;;4215615;28;20268;-82
2022/08/29 03:46:36;;;;;;;2.88;1.50;;;23.00;99.90;;;;;;4212723;28;20261;-82
2022/08/29 03:48:38;;;;;;;2.92;2.08;;;23.00;99.90;;;;;;4215243;28;20214;-82
2022/08/29 03:50:41;;;;;;;3.63;1.90;;;23.00;99.90;;;;;;4215790;28;20223;-82
2022/08/29 03:52:45;;;;;;;3.55;1.95;;;23.00;99.90;;;;;;4215757;28;20218;-82
2022/08/29 03:54:47;;;;;;;2.30;1.95;;;23.00;99.90;;;;;;4215484;28;20223;-82
2022/08/29 03:56:49;;;;;;;3.53;1.90;;;23.00;99.90;;;;;;4214796;28;20211;-82
2022/08/29 03:58:52;;;;;;;2.63;1.92;;;23.00;99.90;;;;;;4212171;28;20222;-82
2022/08/29 04:00:54;;;;;;;3.42;2.13;;;23.00;99.90;;;;;;4215133;28;20300;-82
2022/08/29 04:02:57;;;;;;;3.03;1.77;;;23.00;99.90;;;;;;4212249;28;20606;-82
2022/08/29 04:05:08;;;;;;;2.03;1.80;;;23.00;99.90;;;;;;4214876;28;20215;-82
2022/08/29 04:07:12;;;;;;;2.83;1.92;;;23.00;99.90;;;;;;4214668;28;20247;-82
2022/08/29 04:09:15;;;;;;;2.08;1.80;;;23.00;99.90;;;;;;4215431;28;20203;-82
2022/08/29 04:11:19;;;;;;;3.55;2.10;;;23.00;99.90;;;;;;4215622;28;20218;-82
2022/08/29 04:13:21;;;;;;;3.08;1.90;;;23.00;99.90;;;;;;4208499;28;20719;-82
2022/08/29 04:15:26;;;;;;;2.92;1.80;;;23.00;99.90;;;;;;4215050;28;20206;-82
2022/08/29 04:17:28;;;;;;;3.25;2.03;;;23.00;99.90;;;;;;4214646;28;20255;-82
2022/08/29 04:19:31;;;;;;;2.45;1.83;;;23.00;99.90;;;;;;4215087;28;20611;-81
2022/08/29 04:21:34;;;;;;;4.15;2.10;;;22.90;99.90;;;;;;4215743;28;20284;-82
2022/08/29 04:23:38;;;;;;;4.07;2.10;;;23.00;99.90;;;;;;4215637;28;20215;-81
2022/08/29 04:25:43;;;;;;;2.28;1.60;;;22.90;99.90;;;;;;4216021;28;20619;-81
2022/08/29 04:27:46;;;;;;;2.40;1.63;;;22.90;99.90;;;;;;4214669;28;20650;-82
2022/08/29 04:29:48;;;;;;;3.22;1.70;;;22.90;99.90;;;;;;4210938;28;20249;-82
2022/08/29 04:31:50;;;;;;;2.75;1.80;;;23.00;99.90;;;;;;4214505;28;20210;-82
2022/08/29 04:33:55;;;;;;;2.67;1.85;;;22.90;99.90;;;;;;4214635;28;20259;-82
2022/08/29 04:35:57;;;;;;;3.50;1.85;;;22.90;99.90;;;;;;4214703;28;20223;-82
2022/08/29 04:37:59;;;;;;;2.80;1.92;;;22.90;99.90;;;;;;4211533;28;20299;-82
2022/08/29 04:40:02;;;;;;;2.50;1.85;;;22.90;99.90;;;;;;4214383;28;20206;-82
2022/08/29 04:42:06;;;;;;;3.00;1.90;;;22.90;99.90;;;;;;4214928;28;20922;-82
2022/08/29 04:44:11;;;;;;;2.08;1.70;;;22.90;99.90;;;;;;4210014;28;20722;-82
2022/08/29 04:46:14;;;;;;;1.98;1.77;;;22.90;99.90;;;;;;4212643;28;20207;-83
2022/08/29 04:48:17;;;;;;;2.97;1.77;;;22.90;99.90;;;;;;4214145;28;20206;-82
2022/08/29 04:50:21;;;;;;;2.03;1.83;;;22.90;99.90;;;;;;4213899;28;20615;-82
2022/08/29 04:52:26;;;;;;;2.78;1.90;;;22.90;99.90;;;;;;4211395;28;20214;-82
2022/08/29 04:54:29;;;;;;;2.92;1.80;;;22.90;99.90;;;;;;4212358;28;20218;-82
2022/08/29 04:56:32;;;;;;;3.03;1.67;;;22.90;99.90;;;;;;4209851;28;20655;-82
2022/08/29 04:58:38;;;;;;;2.58;1.90;;;22.90;99.90;;;;;;4218464;28;20245;-82
2022/08/29 05:00:40;;;;;;;3.47;1.92;;;22.90;99.90;;;;;;4210765;28;20219;-81
2022/08/29 05:02:44;;;;;;;4.10;1.80;;;22.90;99.90;;;;;;4214384;28;20214;-82
2022/08/29 05:04:46;;;;;;;3.08;2.05;;;22.90;99.90;;;;;;4214240;28;20619;-82
2022/08/29 05:06:49;;;;;;;3.40;1.65;;;22.90;99.90;;;;;;4210631;28;20210;-82
2022/08/29 05:08:52;;;;;;;2.97;1.95;;;22.90;99.90;;;;;;4214011;28;20206;-82
2022/08/29 05:10:54;;;;;;;3.03;1.75;;;22.90;99.90;;;;;;4211333;28;20265;-82
2022/08/29 05:12:57;;;;;;;2.88;1.92;;;22.90;99.90;;;;;;4211335;28;20215;-82
2022/08/29 05:15:00;;;;;;;3.25;2.10;;;22.90;99.90;;;;;;4213418;28;20615;-82
2022/08/29 05:17:03;;;;;;;4.78;2.03;;;22.90;99.90;;;;;;4213646;28;20279;-82
2022/08/29 05:19:06;;;;;;;8.80;2.30;;;22.90;99.90;;;;;;4213022;28;20299;-82
2022/08/29 05:21:09;;;;;;;4.57;2.10;;;22.90;99.90;;;;;;4214411;28;20218;-81
2022/08/29 05:23:12;;;;;;;3.97;2.10;;;22.80;99.90;;;;;;4212708;28;20210;-81
2022/08/29 05:25:14;;;;;;;2.75;2.00;;;22.90;99.90;;;;;;4213920;28;20210;-81
2022/08/29 05:27:19;;;;;;;3.42;2.00;;;22.90;99.90;;;;;;4212821;28;20210;-81
2022/08/29 05:29:21;;;;;;;3.80;2.00;;;22.90;99.90;;;;;;4211765;28;20210;-81
2022/08/29 05:31:25;;;;;;;3.95;1.60;;;22.90;99.90;;;;;;4207331;28;20724;-81
2022/08/29 05:33:29;;;;;;;3.85;2.10;;;22.90;99.90;;;;;;4213867;28;20211;-81
2022/08/29 05:35:31;;;;;;;3.33;1.90;;;22.80;99.90;;;;;;4214613;28;20218;-81
2022/08/29 05:37:34;;;;;;;3.15;1.92;;;22.90;99.90;;;;;;4214386;28;20268;-81
2022/08/29 05:39:37;;;;;;;3.65;1.90;;;22.90;99.90;;;;;;4213695;28;20226;-81
2022/08/29 05:41:40;;;;;;;3.00;2.00;;;22.90;99.90;;;;;;4214574;28;20262;-81
2022/08/29 05:43:42;;;;;;;2.60;1.70;;;22.90;99.90;;;;;;4214757;28;20257;-81
2022/08/29 05:45:44;;;;;;;3.42;1.90;;;22.90;99.90;;;;;;4211386;28;20218;-81
2022/08/29 05:47:48;;;;;;;4.13;2.03;;;22.90;99.90;;;;;;4214227;28;20215;-81
2022/08/29 05:49:50;;;;;;;2.95;1.77;;;22.90;99.90;;;;;;4214252;28;20218;-81
2022/08/29 05:51:53;;;;;;;2.88;1.75;;;22.90;99.90;;;;;;4214174;28;20263;-81
2022/08/29 05:53:55;;;;;;;4.47;2.00;;;22.90;99.90;;;;;;4214599;28;20689;-81
2022/08/29 05:55:58;;;;;;;3.83;2.13;;;22.90;99.90;;;;;;4212343;28;20218;-81
2022/08/29 05:58:00;;;;;;;2.70;2.08;;;22.90;99.90;;;;;;4210080;28;20226;-81
2022/08/29 06:00:04;;;;;;;3.67;2.00;;;22.80;99.90;;;;;;4216620;28;20240;-81
2022/08/29 06:02:09;;;;;;;4.95;2.20;;;22.80;99.90;;;;;;4202328;28;20219;-81
2022/08/29 06:04:13;;;;;;;3.10;1.80;;;22.90;99.90;;;;;;4212936;28;20279;-82
2022/08/29 06:06:15;;;;;;;3.47;1.90;;;22.90;99.90;;;;;;4213400;28;20199;-82
2022/08/29 06:08:18;;;;;;;2.85;1.83;;;22.80;99.90;;;;;;4210645;28;20203;-82
2022/08/29 06:10:20;;;;;;;2.72;2.05;;;22.90;99.90;;;;;;4213440;28;20214;-82
2022/08/29 06:12:23;;;;;;;2.60;1.88;;;22.90;99.90;;;;;;4213515;28;20218;-82
2022/08/29 06:14:26;;;;;;;4.65;2.15;;;22.80;99.90;;;;;;4213189;28;20287;-82
2022/08/29 06:16:29;;;;;;;4.40;2.30;;;22.90;99.90;;;;;;4210900;28;20214;-82
2022/08/29 06:18:32;;;;;;;4.05;2.00;;;22.90;99.90;;;;;;4204070;28;20296;-82
2022/08/29 06:20:37;;;;;;;3.58;2.03;;;22.90;99.90;;;;;;4212635;28;20557;-82
2022/08/29 06:22:40;;;;;;;2.90;2.03;;;22.80;99.90;;;;;;4212511;28;20222;-82
2022/08/29 06:24:44;;;;;;;4.45;2.10;;;22.90;99.90;;;;;;4212370;28;20272;-82
2022/08/29 06:26:46;;;;;;;2.65;2.00;;;22.90;99.90;;;;;;4212187;28;20260;-82
2022/08/29 06:28:49;;;;;;;4.50;2.20;;;22.80;99.90;;;;;;4212708;28;20241;-82
2022/08/29 06:30:51;;;;;;;2.88;1.90;;;22.90;99.90;;;;;;4212045;28;20275;-82
2022/08/29 06:32:53;;;;;;;4.45;2.10;;;22.80;99.90;;;;;;4213071;28;20211;-82
2022/08/29 06:34:56;;;;;;;2.63;1.83;;;22.90;99.90;;;;;;4212869;28;20215;-82
2022/08/29 06:36:59;;;;;;;2.95;1.90;;;22.80;99.90;;;;;;4212761;28;20215;-82
2022/08/29 06:39:05;;;;;;;5.05;2.40;;;22.80;99.90;;;;;;4212838;28;20291;-82
2022/08/29 06:41:10;;;;;;;4.00;2.40;;;22.80;99.90;;;;;;4211353;28;20256;-82
2022/08/29 06:43:12;;;;;;;4.50;1.90;;;22.80;99.90;;;;;;4218142;28;20211;-88
2022/08/29 06:45:14;;;;;;;4.75;2.67;;;22.80;99.90;;;;;;4213535;28;20244;-86
2022/08/29 06:47:17;;;;;;;5.88;2.70;;;22.80;99.90;;;;;;4213406;28;20210;-83
2022/08/29 06:49:20;;;;;;;5.93;3.13;;;22.80;99.90;;;;;;4213309;28;20650;-83
2022/08/29 06:51:23;;;;;;;7.03;2.88;;;22.70;99.90;;;;;;4213812;28;20655;-82
2022/08/29 06:53:27;;;;;;;4.95;2.70;;;22.70;99.90;;;;;;4216691;28;20684;-84
2022/08/29 06:55:30;;;;;;;9.32;3.55;;;22.70;99.90;;;;;;4219478;28;20264;-82
2022/08/29 06:57:32;;;;;;;16.83;4.22;;;22.70;99.90;;;;;;4219716;28;20251;-86
2022/08/29 06:59:35;;;;;;;12.82;3.70;;;22.70;99.90;;;;;;4213423;28;20226;-86
2022/08/29 07:01:42;;;;;;;17.08;3.00;;;22.60;99.90;;;;;;4212987;28;20210;-81
2022/08/29 07:03:44;;;;;;;13.52;4.28;;;22.60;99.90;;;;;;4216315;28;20675;-84
2022/08/29 07:05:52;;;;;;;11.32;4.22;;;22.60;99.90;;;;;;4214847;28;20215;-84
2022/08/29 07:07:54;;;;;;;17.88;4.13;;;22.60;99.90;;;;;;4214350;28;20300;-84
2022/08/29 07:09:58;;;;;;;9.57;3.28;;;22.50;99.90;;;;;;4207960;28;20206;-82
2022/08/29 07:12:01;;;;;;;11.40;3.80;;;22.50;99.90;;;;;;4206687;28;20218;-80
2022/08/29 07:14:04;;;;;;;9.52;3.85;;;22.30;99.90;;;;;;4214205;28;20210;-78
2022/08/29 07:16:09;;;;;;;8.93;3.92;;;22.00;99.90;;;;;;4196310;28;20650;-75
2022/08/29 07:18:11;;;;;;;13.35;3.97;;;21.90;99.90;;;;;;4205979;28;20284;-75
2022/08/29 07:20:14;;;;;;;11.10;4.32;;;21.70;99.90;;;;;;4207092;28;20273;-75
2022/08/29 07:22:17;;;;;;;8.45;4.13;;;21.70;99.90;;;;;;4213042;28;20251;-73
2022/08/29 07:24:19;;;;;;;7.53;3.75;;;21.70;99.90;;;;;;4203918;28;20215;-75
2022/08/29 07:26:25;;;;;;;11.60;3.60;;;21.70;99.90;;;;;;4207113;28;20221;-75
2022/08/29 07:28:29;;;;;;;9.52;3.67;;;21.60;99.90;;;;;;4203701;28;20218;-76
2022/08/29 07:30:32;;;;;;;9.52;3.80;;;21.70;99.90;;;;;;4206341;28;20243;-77
2022/08/29 07:32:34;;;;;;;10.10;3.55;;;21.70;99.90;;;;;;4204629;28;20613;-75
2022/08/29 07:34:40;;;;;;;10.00;3.80;;;21.60;99.90;;;;;;4206937;28;21076;-75
2022/08/29 07:36:42;;;;;;;12.20;3.95;;;21.60;99.90;;;;;;4203231;28;20649;-76
2022/08/29 07:38:48;;;;;;;9.55;3.20;;;21.60;99.90;;;;;;4214751;28;20267;-76
2022/08/29 07:40:58;;;;;;;8.75;3.30;;;21.50;99.90;;;;;;4209620;28;20238;-75
2022/08/29 07:43:04;;;;;;;7.07;3.38;;;21.50;99.90;;;;;;4211426;28;20266;-75
2022/08/29 07:45:10;;;;;;;9.27;3.63;;;21.40;99.90;;;;;;4210410;28;20264;-76
2022/08/29 07:47:12;;;;;;;9.85;3.55;;;21.50;99.90;;;;;;4210707;28;20214;-76
2022/08/29 07:49:16;;;;;;;11.30;3.60;;;21.40;99.90;;;;;;4210137;28;20732;-83
2022/08/29 07:51:21;;;;;;;8.40;3.53;;;21.50;99.90;;;;;;4211960;28;20206;-83
2022/08/29 07:53:24;;;;;;;11.32;3.80;;;21.50;99.90;;;;;;4211038;28;20211;-79
2022/08/29 07:55:26;;;;;;;13.88;3.47;;;21.50;99.90;;;;;;4211397;28;20280;-80
2022/08/29 07:57:29;;;;;;;12.57;2.90;;;21.50;99.90;;;;;;4207595;28;20264;-79
2022/08/29 07:59:43;;;;;;;9.63;3.00;;;21.50;99.90;;;;;;4210354;28;20238;-79
2022/08/29 08:01:46;;;;;;;7.85;3.15;;;21.60;99.90;;;;;;4205653;28;20263;-81
2022/08/29 08:03:49;;;;;;;7.72;2.70;;;21.60;99.90;;;;;;4210410;28;20214;-78
2022/08/29 08:05:52;;;;;;;9.68;2.90;;;21.70;99.90;;;;;;4209360;28;20283;-77
2022/08/29 08:07:54;;;;;;;10.60;2.97;;;21.70;99.90;;;;;;4210861;28;20222;-76
2022/08/29 08:09:56;;;;;;;8.63;3.47;;;21.70;99.90;;;;;;4208008;28;20207;-76
2022/08/29 08:11:58;;;;;;;9.90;2.90;;;21.70;99.90;;;;;;4211202;28;20708;-76
2022/08/29 08:14:01;;;;;;;8.18;2.95;;;21.70;99.90;;;;;;4210985;28;20277;-80
2022/08/29 08:16:11;;;;;;;8.45;2.72;;;21.70;99.90;;;;;;4215349;28;20223;-83
2022/08/29 08:18:14;;;;;;;7.30;2.83;;;21.70;99.90;;;;;;4213080;28;20209;-81
2022/08/29 08:20:16;;;;;;;8.63;2.45;;;21.70;99.90;;;;;;4209718;28;20280;-77
2022/08/29 08:22:20;;;;;;;9.65;2.70;;;21.70;99.90;;;;;;4212152;28;20613;-78
2022/08/29 08:24:22;;;;;;;5.97;2.50;;;21.80;99.90;;;;;;4213008;28;20670;-78
2022/08/29 08:26:25;;;;;;;8.02;3.05;;;21.80;99.90;;;;;;4210909;28;20540;-78
2022/08/29 08:28:29;;;;;;;26.83;3.80;;;21.80;99.90;;;;;;4204355;28;20266;-75
2022/08/29 08:30:33;;;;;;;8.15;2.95;;;21.80;99.90;;;;;;4208733;28;20222;-76
2022/08/29 08:32:37;;;;;;;11.10;2.90;;;21.90;99.90;;;;;;4208250;28;20210;-78
2022/08/29 08:34:39;;;;;;;7.13;2.35;;;21.80;99.90;;;;;;4203596;28;20255;-81
2022/08/29 08:36:49;;;;;;;8.13;2.67;;;22.00;99.90;;;;;;4208874;28;20642;-86
2022/08/29 08:38:53;;;;;;;8.20;2.53;;;22.00;99.90;;;;;;4208126;28;20218;-81
2022/08/29 08:41:04;;;;;;;6.95;2.38;;;22.10;99.90;;;;;;4207504;28;20359;-78
2022/08/29 08:43:10;;;;;;;7.82;2.38;;;22.10;99.90;;;;;;4206465;28;20210;-79
2022/08/29 08:45:15;;;;;;;5.53;2.20;;;22.10;99.90;;;;;;4206596;28;20214;-78
2022/08/29 08:47:24;;;;;;;6.20;2.50;;;22.10;99.90;;;;;;4206896;28;20603;-77
2022/08/29 08:49:42;;;;;;;10.23;2.65;;;22.20;99.90;;;;;;4203014;28;20355;-75
2022/08/29 08:51:50;;;;;;;8.55;2.30;;;22.10;99.90;;;;;;4202404;28;20230;-80
2022/08/29 08:53:56;;;;;;;4.72;2.20;;;22.20;99.90;;;;;;4204412;28;20262;-76
2022/08/29 08:56:00;;;;;;;6.38;2.80;;;22.20;99.90;;;;;;4209169;28;20268;-80
2022/08/29 08:58:09;;;;;;;7.40;2.55;;;22.30;99.90;;;;;;4208860;28;20238;-81
2022/08/29 09:00:12;;;;;;;5.65;2.35;;;22.30;99.90;;;;;;4206574;28;20230;-78
2022/08/29 09:02:26;;;;;;;8.77;2.75;;;22.30;99.90;;;;;;4208988;28;20218;-82
2022/08/29 09:04:58;;;;;;;6.90;2.88;;;22.20;99.90;;;;;;4207747;28;20222;-78
2022/08/29 09:07:16;;;;;;;6.93;2.42;;;22.20;99.90;;;;;;4207891;28;20962;-75
2022/08/29 09:09:31;;;;;;;9.48;3.20;;;22.30;99.90;;;;;;4209261;28;20244;-76
2022/08/29 09:11:42;;;;;;;5.97;2.53;;;22.30;99.90;;;;;;4211530;28;20350;-75
2022/08/29 09:13:55;;;;;;;6.57;2.58;;;22.40;99.90;;;;;;4207548;28;20293;-79
2022/08/29 09:16:01;;;;;;;5.63;2.55;;;22.40;99.90;;;;;;4201471;28;20276;-75
2022/08/29 09:18:09;;;;;;;7.47;2.67;;;22.40;99.90;;;;;;4202834;28;20283;-77
2022/08/29 09:20:15;;;;;;;6.18;2.55;;;22.30;99.90;;;;;;4209724;28;20286;-78
2022/08/29 09:22:25;;;;;;;5.53;2.60;;;22.40;99.90;;;;;;4188196;28;20210;-75
2022/08/29 09:24:35;;;;;;;5.70;2.55;;;22.40;99.90;;;;;;4203937;28;20229;-76
2022/08/29 09:26:38;;;;;;;6.43;2.85;;;22.30;99.90;;;;;;4202359;28;21016;-79
2022/08/29 09:28:40;;;;;;;7.53;3.00;;;22.40;99.90;;;;;;4205855;28;20231;-76
2022/08/29 09:31:04;;;;;;;5.97;2.67;;;22.40;99.90;;;;;;4205530;28;20203;-78
2022/08/29 09:33:10;;;;;;;7.28;2.45;;;22.50;99.90;;;;;;4209212;28;20274;-77
2022/08/29 09:35:23;;;;;;;6.18;2.92;;;22.50;99.90;;;;;;4202693;28;20218;-78
2022/08/29 09:37:28;;;;;;;10.75;2.90;;;22.50;99.90;;;;;;4203076;28;20213;-78
2022/08/29 09:39:31;;;;;;;11.43;3.15;;;22.50;99.90;;;;;;4207623;28;20311;-74
2022/08/29 09:41:34;;;;;;;7.90;3.13;;;22.60;99.90;;;;;;4202184;28;20242;-74
2022/08/29 09:43:47;;;;;;;11.93;3.97;;;22.60;99.90;;;;;;4206265;28;20211;-73
2022/08/29 09:46:19;;;;;;;10.73;3.58;;;22.60;99.90;;;;;;4204149;28;20270;-74
2022/08/29 09:48:23;;;;;;;10.90;3.03;;;22.60;99.90;;;;;;4204069;28;20590;-74
2022/08/29 09:50:28;;;;;;;8.90;3.50;;;22.70;99.90;;;;;;4201842;28;20283;-75
2022/08/29 09:52:30;;;;;;;9.70;3.53;;;22.70;99.90;;;;;;4208093;28;20728;-75
2022/08/29 09:54:32;;;;;;;8.25;2.88;;;22.70;99.90;;;;;;4212511;28;20213;-75
2022/08/29 09:56:36;;;;;;;5.80;2.90;;;22.70;99.90;;;;;;4202386;28;20266;-76
2022/08/29 09:58:41;;;;;;;11.30;3.40;;;22.70;99.90;;;;;;4204794;28;20339;-74
2022/08/29 10:00:59;;;;;;;7.25;3.05;;;22.70;99.90;;;;;;4201023;28;20302;-75
2022/08/29 10:03:06;;;;;;;8.20;2.80;;;22.70;99.90;;;;;;4212535;28;20206;-76
2022/08/29 10:05:26;;;;;;;5.53;2.83;;;22.70;99.90;;;;;;4204953;28;20214;-77
2022/08/29 10:07:30;;;;;;;8.00;2.67;;;22.80;99.90;;;;;;4205682;28;20244;-78
2022/08/29 10:09:32;;;;;;;6.90;3.03;;;22.80;99.90;;;;;;4204523;28;20276;-79
2022/08/29 10:11:43;;;;;;;4.45;2.60;;;22.80;99.90;;;;;;4205134;28;20995;-73
2022/08/29 10:13:51;;;;;;;7.80;3.13;;;22.80;99.90;;;;;;4213165;28;20218;-73
2022/08/29 10:16:01;;;;;;;4.93;2.88;;;22.80;99.90;;;;;;4201020;28;20290;-72
2022/08/29 10:18:23;;;;;;;6.00;2.65;;;22.80;99.90;;;;;;4206357;28;20213;-74
2022/08/29 10:20:44;;;;;;;9.60;3.17;;;22.80;99.90;;;;;;4199925;28;20304;-75
2022/08/29 10:22:52;;;;;;;9.57;3.15;;;22.80;99.90;;;;;;4205139;28;20308;-75
2022/08/29 10:25:03;;;;;;;6.80;3.22;;;22.90;99.90;;;;;;4205725;28;20218;-74
2022/08/29 10:27:14;;;;;;;7.57;3.08;;;22.90;99.90;;;;;;4203877;28;20218;-76
2022/08/29 10:29:30;;;;;;;6.28;2.97;;;22.90;99.90;;;;;;4202103;28;20267;-76
2022/08/29 10:31:37;;;;;;;5.88;3.00;;;23.00;99.90;;;;;;4208164;28;20207;-73
2022/08/29 10:33:54;;;;;;;6.85;2.80;;;23.00;99.90;;;;;;4208713;28;20217;-76
2022/08/29 10:36:12;;;;;;;6.75;3.05;;;22.90;99.90;;;;;;4198944;28;20735;-77
2022/08/29 10:38:32;;;;;;;6.35;2.83;;;23.00;99.90;;;;;;4206920;28;20615;-76
2022/08/29 10:40:41;;;;;;;5.68;3.10;;;23.10;99.90;;;;;;4206150;28;20225;-75
2022/08/29 10:42:47;;;;;;;5.07;2.88;;;23.00;99.90;;;;;;4205909;28;20279;-76
2022/08/29 10:45:01;;;;;;;10.45;3.03;;;23.00;99.90;;;;;;4201389;28;20248;-74
2022/08/29 10:47:22;;;;;;;7.93;3.05;;;23.00;99.90;;;;;;4209102;28;20209;-78
2022/08/29 10:49:35;;;;;;;6.32;3.03;;;23.00;99.90;;;;;;4211159;28;20222;-76
2022/08/29 10:51:47;;;;;;;7.93;2.80;;;23.10;99.90;;;;;;4201871;28;20214;-74